Home > Products > Valid Products > TAF

000
FTUS43 KSGF 241700
TAFJLN
TAF
KJLN 241724Z 2418/2518 11008KT P6SM FEW030
     FM250000 14007KT P6SM FEW250
     FM250900 17010KT P6SM SCT250
     FM251500 20014G20KT P6SM SCT250=



000
FTUS43 KSGF 241700
TAFSGF
TAF
KSGF 241724Z 2418/2518 10007KT P6SM SKC
     FM250400 15008KT P6SM FEW250
     FM251600 19011KT P6SM SCT250=



000
FTUS43 KSGF 241100
TAFSGF
TAF
KSGF 241120Z 2412/2512 09008KT P6SM SKC
     FM250700 15010KT P6SM SKC=



000
FTUS43 KSGF 241100
TAFJLN
TAF
KJLN 241120Z 2412/2512 09006KT P6SM SKC=



000
FTUS43 KSGF 240500
TAFSGF
TAF
KSGF 240520Z 2406/2506 VRB04KT P6SM SKC
     FM241400 09008KT P6SM SKC=



000
FTUS43 KSGF 240500
TAFJLN
TAF
KJLN 240520Z 2406/2506 VRB04KT P6SM SKC
     FM241400 09006KT P6SM SKC=



000
FTUS43 KSGF 232300
TAFSGF
TAF
KSGF 232320Z 2400/2424 03006KT P6SM SKC
     FM240600 05006KT 5SM BR SKC
     FM241400 09008KT P6SM SKC=



000
FTUS43 KSGF 232300
TAFJLN
TAF
KJLN 232320Z 2400/2424 05005KT P6SM SKC
      TEMPO 2409/2413 5SM BR
     FM241400 09006KT P6SM SKC=



000
FTUS43 KSGF 231900 AAA
TAFSGF
TAF AMD
KSGF 231925Z 2319/2418 01009KT P6SM VCSH SCT025 BKN050
      TEMPO 2319/2321 26012G22KT 5SM SHRA BR BKN025
     FM232100 02011KT P6SM FEW020 SCT250
     FM240000 03006KT P6SM SKC
     FM240600 05006KT 5SM BR SKC
     FM241400 09008KT P6SM SKC=



000
FTUS43 KSGF 231700
TAFJLN
TAF
KJLN 231725Z 2318/2418 02010KT 6SM HZ BKN012 OVC200
      TEMPO 2318/2320 30025G35KT 3SM TSRA BR BKN035CB
     FM232000 02010KT P6SM FEW020 SCT200
     FM240000 05005KT P6SM SKC
      TEMPO 2409/2413 5SM BR=



000
FTUS43 KSGF 231700
TAFSGF
TAF
KSGF 231725Z 2318/2418 01009KT P6SM BKN015
     FM232100 02011KT P6SM FEW020 SCT250
     FM240000 03006KT P6SM SKC
     FM240600 05006KT 5SM BR SKC
     FM241400 09008KT P6SM SKC=



000
FTUS43 KSGF 231500 AAB
TAFSGF
TAF AMD
KSGF 231544Z 2316/2412 33007KT P6SM OVC009
      TEMPO 2316/2319 BKN012
     FM231900 03010KT P6SM SCT050
     FM240200 06005KT P6SM SKC=



000
FTUS43 KSGF 231500 AAB
TAFJLN
TAF AMD
KJLN 231543Z 2316/2412 36008KT P6SM BKN015
     FM231800 02010KT P6SM SCT050
     FM240200 05005KT P6SM SKC=



000
FTUS43 KSGF 231400 AAA
TAFJLN
TAF AMD
KJLN 231403Z 2314/2412 36005KT P6SM SCT050 SCT120
      TEMPO 2314/2316 5SM BR BKN010
     FM231800 02010KT P6SM SCT050
     FM240200 05005KT P6SM SKC=



000
FTUS43 KSGF 231400 AAA
TAFSGF
TAF AMD
KSGF 231400Z 2314/2412 36005KT P6SM SCT050 SCT100
      TEMPO 2314/2317 5SM HZ BKN007
     FM231800 03010KT P6SM SCT050
     FM240200 06005KT P6SM SKC=



000
FTUS43 KSGF 231100
TAFSGF
TAF
KSGF 231120Z 2312/2412 VRB03KT 6SM BR SCT050 SCT250
     FM231400 36005KT P6SM SCT050 SCT100
     FM231800 03010KT P6SM SCT050
     FM240200 06005KT P6SM SKC=



000
FTUS43 KSGF 231100
TAFJLN
TAF
KJLN 231120Z 2312/2412 22006KT P6SM SCT050 SCT250
     FM231300 36005KT P6SM SCT050 SCT120
     FM231800 02010KT P6SM SCT050
     FM240200 05005KT P6SM SKC=



000
FTUS43 KSGF 230500
TAFJLN
TAF
KJLN 230520Z 2306/2406 22006KT P6SM SCT050 SCT250
     FM231300 36005KT P6SM SCT050 SCT120
     FM231800 02010KT P6SM SCT050
     FM240000 04005KT P6SM SKC=



000
FTUS43 KSGF 230500
TAFSGF
TAF
KSGF 230520Z 2306/2406 VRB03KT 6SM BR SCT050 SCT250
     FM231400 36005KT P6SM SCT050 SCT100
     FM231800 03010KT P6SM SCT050
     FM240000 04005KT P6SM SKC=



000
FTUS43 KSGF 222300 CCA
TAFJLN
TAF COR
KJLN 222346Z 2300/2324 23008G18KT P6SM SKC
     FM230600 22004KT P6SM VCSH SCT050 OVC250
     FM231300 36005KT P6SM SCT050 OVC150
     FM231800 02010KT P6SM BKN250=



000
FTUS43 KSGF 222300
TAFJLN
TAF
KJLN 222338Z 2300/2324 23008G18KT P6SM SKC
     FM230400 22004KT P6SM VCTS SCT050CB OVC250
     FM231300 36005KT P6SM SCT050 OVC150
     FM231800 02010KT P6SM BKN250=



000
FTUS43 KSGF 222300
TAFSGF
TAF
KSGF 222338Z 2300/2324 VRB04KT P6SM SKC
     FM230400 22004KT P6SM VCTS SCT050CB OVC250
     FM231200 01006KT P6SM SCT050 OVC150
     FM231800 03010KT P6SM BKN250=



000
FTUS43 KSGF 221700
TAFSGF
TAF
KSGF 221730Z 2218/2318 23007KT P6SM SCT035
     FM230600 22004KT P6SM OVC250 PROB30 2307/2311 3SM TSRA BKN050CB
     FM231200 01006KT P6SM SCT050 OVC150=



000
FTUS43 KSGF 221700
TAFJLN
TAF
KJLN 221730Z 2218/2318 22008KT P6SM FEW040
     FM222000 22009KT P6SM SCT250
     FM230600 22004KT P6SM OVC250 PROB30 2307/2311 3SM TSRA BKN050CB
     FM231300 36005KT P6SM SCT050 OVC150=



000
FTUS43 KSGF 221100
TAFSGF
TAF
KSGF 221120Z 2212/2312 15007KT P6SM FEW250
     FM221600 19008KT P6SM FEW040 SCT250
     FM230600 22004KT P6SM OVC250 PROB30 2307/2311 3SM TSRA
      BKN050CB=



000
FTUS43 KSGF 221100
TAFJLN
TAF
KJLN 221120Z 2212/2312 20005KT P6SM SCT250
     FM221600 20009KT P6SM FEW050 SCT250
     FM230600 22004KT P6SM OVC250 PROB30 2307/2311 3SM TSRA
      BKN050CB=



000
FTUS43 KSGF 220500
TAFJLN
TAF
KJLN 220520Z 2206/2306 20005KT P6SM SCT250
     FM221600 20009KT P6SM FEW050 SCT250=



000
FTUS43 KSGF 220500
TAFSGF
TAF
KSGF 220520Z 2206/2306 15007KT P6SM FEW250
     FM221600 18008KT P6SM FEW040 SCT250=



000
FTUS43 KSGF 212300
TAFSGF
TAF
KSGF 212320Z 2200/2224 20006KT P6SM FEW250=



000
FTUS43 KSGF 212300
TAFJLN
TAF
KJLN 212320Z 2200/2224 20006KT P6SM FEW050 FEW250=



    US Dept of Commerce
    National Oceanic and Atmospheric Administration
    National Weather Service
    1325 East West Highway
    Silver Spring, MD 20910
    Page Author: NWS Internet Services Team
Disclaimer
Information Quality
Credits
Glossary
Privacy Policy
Freedom of Information Act (FOIA)
About Us
Career Opportunities